Omaha, NE (68135)

8:40 AM CDT on May 30, 2015 (GMT -0500)
Prairie Point 163rd and Q St | | Change Station
CLOSE
Current Station
Personal Weather Station
Location: Omaha, NE
Elevation: 1200 ft
Nearby Weather Stations

Elev 1200 ft 41.21 °N, 96.17 °W | Updated 14 seconds ago

Overcast
Overcast
51.7 °F
Feels Like 51.7 °F
N
5.0
Wind Variable Wind from WSW
Gusts 14.0 mph

Today
High -- | Low -- °F
--% Chance of Precip.
Yesterday
High -- | Low -- °F
Precip. -- in
5:55 AM 8:49 PM
Waxing Gibbous, 90% visible
Pressure 30.17 in
Visibility 10.0 miles
Clouds Overcast 1900 ft
Dew Point 47 °F
Humidity 84%
Rainfall 0.00 in
Snow Depth Not available.
UV 1 out of 12
Pollen 7.00 out of 12
Air Quality Not available.
Flu Activity No Activity
METAR KMLE 301315Z AUTO 33009KT 10SM OVC019 12/08 A3017 RMK AO2 T01170079

More Conditions Fewer Conditions

Pressure 30.17 in
Visibility 10.0 miles
Clouds Overcast 1900 ft
Dew Point 47 °F
Humidity 84%
Rainfall 0.00 in
Snow Depth Not available.
UV 1 out of 12
Pollen 7.00 out of 12
Air Quality Not available.
Flu Activity No Activity
METAR KMLE 301315Z AUTO 33009KT 10SM OVC019 12/08 A3017 RMK AO2 T01170079

More Conditions Fewer Conditions

10-Day Weather Forecast

Almanac

Astronomy

May. 30, 2015 Rise Set
Actual Time
Civil Twilight
Nautical Twilight
Astronomical Twilight
Moon
Length of Visible Light
Length of Day
Tomorrow will be .
, % of the Moon is Illuminated

Today's Extremes

State Highs State Lows

Community

WunderPhotos

Upload Photos

1,825,510 photos uploaded!

WunderBlogs® & News

Nearby

Air Quality

  Air Quality AQ Index Pollutant
Not available.

Snow Depth

Station Depth Elevation

Earthquake Activity

City Distance Mag. Time & Date
Minimum magnitude displayed is 2.5.

Coastal Water Temperatures

Place Temperature

Stations

Nearby Weather Stations

Station Location Temp. Windchill Dew Point Humidity Wind Precip. Elev Updated Type